Arnott, Wisconsin
Current Conditions -  °F | °C
As of 1:55 AM on Saturday 25 Oct 2014 (Local Time) from KSTE Reporting Station
Haze Haze  
Wind Chill: 54°   Ceiling: 500
Heat Index: 54°   Visibility: 5mi
Dew Point: 53°   Wind: 8mph
Humidity: 95%   Direction: 250°WSW
Pressure: 29.85"   Gusts: NA
Location:  44.5531°N, 89.5186°W
Report Text: KSTE 250655Z AUTO 25007KT 5SM BR OVC005 12/12 A2985 RMK AO2 P0001 T01230115
Loading
Personal Weather Stations






























Interactive Weather Map
Tropical Storm Tracking
New forecast layout! Learn more

10-Day Weather Forecast

Advertisements
Track Severe Weather on mobile